Time;durP1;ratioP1;P1;durP2;ratioP2;P2;SDS_P1;SDS_P2;PMS_P1;PMS_P2;Temp;Humidity;BMP_temperature;BMP_pressure;BME280_temperature;BME280_humidity;BME280_pressure;Samples;Min_cycle;Max_cycle;Signal;HPM_P1;HPM_P2
2021/11/08 17:13:28;;;;;;;;;;;;;;;;;;5099373;27;1479;-48
2021/11/08 17:15:54;;;;;;;;;;;;;;;;;;5103470;28;1315;-49
2021/11/08 17:18:20;;;;;;;;;;;;;;;;;;5100778;28;1500;-50
2021/11/08 17:20:48;;;;;;;;;;;;;;;;;;5101997;28;1417;-48
2021/11/08 17:23:13;;;;;;;;;;;;;;;;;;5102657;28;1046;-49
2021/11/08 17:25:38;;;;;;;;;;;;;;;;;;5103978;28;1416;-49
2021/11/08 17:28:03;;;;;;;;;;;;;;;;;;5102628;28;1376;-49
2021/11/08 17:30:29;;;;;;;;;;;;;;;;;;5104066;28;1144;-49
2021/11/08 17:32:54;;;;;;;;;;;;;;;;;;5102069;28;1894;-50
2021/11/08 17:35:19;;;;;;;;;;;;;;;;;;5102377;28;1475;-50
2021/11/08 17:37:44;;;;;;;;;;;;;;;;;;5103156;28;1265;-48
2021/11/08 17:40:10;;;;;;;;;;;;;;;;;;5103690;28;1202;-49
2021/11/08 17:42:36;;;;;;;;;;;;;;;;;;5101917;28;1411;-49
2021/11/08 17:45:01;;;;;;;;;;;;;;;;;;5103482;28;1291;-49
2021/11/08 17:47:29;;;;;;;;;;;;;;;;;;5102757;28;1264;-54
2021/11/08 17:49:54;;;;;;;;;;;;;;;;;;5101105;28;1590;-49
2021/11/08 17:52:19;;;;;;;;;;;;;;;;;;5102804;28;1977;-47
2021/11/08 17:54:44;;;;;;;;;;;;;;;;;;5102976;28;1253;-48
2021/11/08 17:57:10;;;;;;;;;;;;;;;;;;5100721;28;1369;-47
2021/11/08 17:59:35;;;;;;;;;;;;;;;;;;5102760;28;1226;-48
2021/11/08 18:02:03;;;;;;;;;;;;;;;;;;5099866;28;1431;-49
2021/11/08 18:04:28;;;;;;;;;;;;;;;;;;5099542;28;1478;-50
2021/11/08 18:06:53;;;;;;;;;;;;;;;;;;5101572;28;1127;-50
2021/11/08 18:09:18;;;;;;;;;;;;;;;;;;5098474;28;1365;-49
2021/11/08 18:11:44;;;;;;;;;;;;;;;;;;5094495;28;1974;-49
2021/11/08 18:14:09;;;;;;;;;;;;;;;;;;5093183;28;1436;-50
2021/11/08 18:16:35;;;;;;;;;;;;;;;;;;5100625;28;1307;-48
2021/11/08 18:19:02;;;;;;;;;;;;;;;;;;5101927;28;1459;-50
2021/11/08 18:22:08;;;;;;;;;;;;;;;;;;5102129;28;1021;-48
2021/11/08 18:24:33;;;;;;;;;;;;;;;;;;5085695;28;1765;-49
2021/11/08 18:26:59;;;;;;;;;;;;;;;;;;5088907;28;1191;-50
2021/11/08 18:29:28;;;;;;;;;;;;;;;;;;5086146;28;1582;-48
2021/11/08 18:31:54;;;;;;;;;;;;;;;;;;5083192;28;1942;-48
2021/11/08 18:34:22;;;;;;;;;;;;;;;;;;5084692;28;1439;-49
2021/11/08 18:36:49;;;;;;;;;;;;;;;;;;5080603;28;1404;-52
2021/11/08 18:39:15;;;;;;;;;;;;;;;;;;5085456;28;1263;-50
2021/11/08 18:41:40;;;;;;;;;;;;;;;;;;5088873;28;1183;-53
2021/11/08 18:44:08;;;;;;;;;;;;;;;;;;5086675;28;1416;-53
2021/11/08 18:46:34;;;;;;;;;;;;;;;;;;5084992;28;1531;-50
2021/11/08 18:48:59;;;;;;;;;;;;;;;;;;5080307;28;1415;-55
2021/11/08 18:51:24;;;;;;;;;;;;;;;;;;5088294;28;1964;-54
2021/11/08 18:53:50;;;;;;;;;;;;;;;;;;5080395;28;1698;-53
2021/11/08 18:56:15;;;;;;;;;;;;;;;;;;5085615;28;972;-53
2021/11/08 18:58:41;;;;;;;;;;;;;;;;;;5090150;28;1108;-53
2021/11/08 19:01:06;;;;;;;;;;;;;;;;;;5090431;28;1012;-55
2021/11/08 19:03:33;;;;;;;;;;;;;;;;;;5102174;22;1967;-51
2021/11/08 19:08:50;;;;;;;;;;;;;;;;;;5036575;28;958;-51
2021/11/08 19:11:16;;;;;;;;;;;;;;;;;;5039140;28;1982;-51
2021/11/08 19:13:42;;;;;;;;;;;;;;;;;;5038966;28;1408;-50
2021/11/08 19:16:08;;;;;;;;;;;;;;;;;;5039246;28;1109;-51
2021/11/08 19:18:33;;;;;;;;;;;;;;;;;;5038421;28;1485;-49
2021/11/08 19:20:59;;;;;;;;;;;;;;;;;;5038788;28;1169;-51
2021/11/08 19:23:24;;;;;;;;;;;;;;;;;;5040530;28;1298;-50
2021/11/08 19:25:49;;;;;;;;;;;;;;;;;;5041629;28;1109;-50
2021/11/08 19:28:17;;;;;;;;;;;;;;;;;;5017296;28;1500;-50
2021/11/08 19:30:45;;;;;;;;;;;;;;;;;;5011127;28;849;-50
2021/11/08 19:33:19;;;;;;;;;;;;;;;;;;5010375;28;1993;-49
2021/11/08 19:38:29;;;;;;;;;;;;;;;;;;5044246;28;1008;-49
2021/11/08 19:40:55;;;;;;;;;;;;;;;;;;5050655;28;930;-50
2021/11/08 19:43:22;;;;;;;;;;;;;;;;;;5030921;28;1589;-50
2021/11/08 19:45:47;;;;;;;;;;;;;;;;;;5010118;28;767;-50
2021/11/08 19:48:14;;;;;;;;;;;;;;;;;;5044140;28;1130;-52
2021/11/08 19:50:39;;;;;;;;;;;;;;;;;;5012741;28;1660;-50
2021/11/08 19:53:05;;;;;;;;;;;;;;;;;;5010201;28;1930;-52
2021/11/08 19:55:31;;;;;;;;;;;;;;;;;;5009981;28;893;-50
2021/11/08 19:57:56;;;;;;;;;;;;;;;;;;5025832;28;1632;-51
2021/11/08 20:00:22;;;;;;;;;;;;;;;;;;5030186;28;932;-50
2021/11/08 20:02:50;;;;;;;;;;;;;;;;;;5029841;28;1075;-51
2021/11/08 20:05:15;;;;;;;;;;;;;;;;;;5013776;28;1605;-51
2021/11/08 20:07:46;;;;;;;;;;;;;;;;;;5024607;28;1122;-50
2021/11/08 20:10:12;;;;;;;;;;;;;;;;;;5030604;28;948;-51
2021/11/08 20:12:43;;;;;;;;;;;;;;;;;;5026906;28;1922;-51
2021/11/08 20:15:09;;;;;;;;;;;;;;;;;;5009349;28;1263;-51
2021/11/08 20:17:34;;;;;;;;;;;;;;;;;;5023350;28;1193;-50
2021/11/08 20:19:59;;;;;;;;;;;;;;;;;;5020827;28;1612;-51
2021/11/08 20:22:24;;;;;;;;;;;;;;;;;;5015258;28;1185;-51
2021/11/08 20:24:50;;;;;;;;;;;;;;;;;;5009294;28;1222;-51
2021/11/08 20:27:16;;;;;;;;;;;;;;;;;;5014760;28;1461;-49
2021/11/08 20:29:48;;;;;;;;;;;;;;;;;;5010314;28;785;-49
2021/11/08 20:32:21;;;;;;;;;;;;;;;;;;5010058;28;1899;-48
2021/11/08 20:45:04;;;;;;;;;;;;;;;;;;5006715;28;1176;-51
2021/11/08 20:58:29;;;;;;;;;;;;;;;;;;5014629;28;1497;-50
2021/11/08 21:00:58;;;;;;;;;;;;;;;;;;5009683;28;841;-50
2021/11/08 21:06:01;;;;;;;;;;;;;;;;;;5019001;28;1022;-50
2021/11/08 21:11:28;;;;;;;;;;;;;;;;;;5020038;28;1906;-50
2021/11/08 21:14:00;;;;;;;;;;;;;;;;;;5020263;28;2044;-50
2021/11/08 21:16:25;;;;;;;;;;;;;;;;;;5017109;28;1236;-49
2021/11/08 21:18:52;;;;;;;;;;;;;;;;;;5025326;28;1497;-50
2021/11/08 21:21:17;;;;;;;;;;;;;;;;;;5021043;28;1185;-50
2021/11/08 21:23:42;;;;;;;;;;;;;;;;;;5018380;28;1362;-49
2021/11/08 21:26:15;;;;;;;;;;;;;;;;;;5008003;28;1592;-49
2021/11/08 21:31:43;;;;;;;;;;;;;;;;;;5023523;28;1974;-49
2021/11/08 21:39:37;;;;;;;;;;;;;;;;;;5029090;28;746;-49
2021/11/08 21:42:03;;;;;;;;;;;;;;;;;;5029002;28;771;-51
2021/11/08 21:44:28;;;;;;;;;;;;;;;;;;5017709;28;1628;-50
2021/11/08 21:46:53;;;;;;;;;;;;;;;;;;5017203;28;1189;-50
2021/11/08 21:49:18;;;;;;;;;;;;;;;;;;5021269;28;1657;-50
2021/11/08 21:51:45;;;;;;;;;;;;;;;;;;5009357;28;1911;-50
2021/11/08 21:54:11;;;;;;;;;;;;;;;;;;5008486;28;1216;-50
2021/11/08 21:56:36;;;;;;;;;;;;;;;;;;5011311;28;1541;-50
2021/11/08 21:59:01;;;;;;;;;;;;;;;;;;5050820;28;1004;-50
2021/11/08 22:01:28;;;;;;;;;;;;;;;;;;5052268;28;762;-51
2021/11/08 22:03:54;;;;;;;;;;;;;;;;;;5043831;28;1675;-50
2021/11/08 22:06:20;;;;;;;;;;;;;;;;;;5016108;28;1146;-49
2021/11/08 22:08:45;;;;;;;;;;;;;;;;;;5052754;28;987;-51
2021/11/08 22:11:10;;;;;;;;;;;;;;;;;;5052485;28;1914;-51
2021/11/08 22:13:35;;;;;;;;;;;;;;;;;;5029327;28;1679;-50
2021/11/08 22:16:01;;;;;;;;;;;;;;;;;;5011804;28;1011;-49
2021/11/08 22:18:26;;;;;;;;;;;;;;;;;;5032821;28;1666;-49
2021/11/08 22:20:52;;;;;;;;;;;;;;;;;;5030380;28;877;-51
2021/11/08 22:23:17;;;;;;;;;;;;;;;;;;5029178;28;1220;-50
2021/11/08 22:25:42;;;;;;;;;;;;;;;;;;5029090;28;1015;-50
2021/11/08 22:28:08;;;;;;;;;;;;;;;;;;5044742;28;1602;-50
2021/11/08 22:30:34;;;;;;;;;;;;;;;;;;5052205;28;879;-49
2021/11/08 22:32:59;;;;;;;;;;;;;;;;;;5052102;28;1957;-50
2021/11/08 22:35:25;;;;;;;;;;;;;;;;;;5017472;28;1620;-50
2021/11/08 22:37:52;;;;;;;;;;;;;;;;;;5032991;28;1265;-49
2021/11/08 22:40:17;;;;;;;;;;;;;;;;;;5032219;28;869;-48
2021/11/08 22:42:42;;;;;;;;;;;;;;;;;;5017336;28;1613;-51
2021/11/08 22:45:07;;;;;;;;;;;;;;;;;;5011293;28;1307;-50
2021/11/08 22:47:33;;;;;;;;;;;;;;;;;;5028793;28;1220;-48
2021/11/08 22:49:58;;;;;;;;;;;;;;;;;;5040015;28;1406;-50
2021/11/08 22:52:23;;;;;;;;;;;;;;;;;;5043700;28;1898;-49
2021/11/08 22:54:48;;;;;;;;;;;;;;;;;;5051256;28;1231;-50
2021/11/08 22:57:14;;;;;;;;;;;;;;;;;;5040417;28;1518;-50
2021/11/08 22:59:39;;;;;;;;;;;;;;;;;;5011657;28;798;-49
2021/11/08 23:02:04;;;;;;;;;;;;;;;;;;5011458;28;801;-49
2021/11/08 23:04:30;;;;;;;;;;;;;;;;;;5010860;28;1652;-50
2021/11/08 23:06:55;;;;;;;;;;;;;;;;;;5020107;28;1480;-51
2021/11/08 23:09:20;;;;;;;;;;;;;;;;;;5037966;28;1113;-48
2021/11/08 23:11:45;;;;;;;;;;;;;;;;;;5036396;28;1981;-50
2021/11/08 23:14:11;;;;;;;;;;;;;;;;;;5009687;28;1296;-50
2021/11/08 23:16:36;;;;;;;;;;;;;;;;;;5018249;28;1189;-50
2021/11/08 23:19:02;;;;;;;;;;;;;;;;;;5040737;28;1580;-48
2021/11/08 23:21:28;;;;;;;;;;;;;;;;;;5011388;28;973;-49
2021/11/08 23:23:54;;;;;;;;;;;;;;;;;;5010776;28;1169;-52
2021/11/08 23:26:19;;;;;;;;;;;;;;;;;;5010352;28;834;-50
2021/11/08 23:28:44;;;;;;;;;;;;;;;;;;5034322;28;1386;-50
2021/11/08 23:31:10;;;;;;;;;;;;;;;;;;5050869;28;1894;-51
2021/11/08 23:33:36;;;;;;;;;;;;;;;;;;5047393;28;1628;-52
2021/11/08 23:36:03;;;;;;;;;;;;;;;;;;5010365;28;1177;-51
2021/11/08 23:38:28;;;;;;;;;;;;;;;;;;5033361;28;1470;-52
2021/11/08 23:40:54;;;;;;;;;;;;;;;;;;5030662;28;794;-50
2021/11/08 23:43:20;;;;;;;;;;;;;;;;;;5030540;28;1217;-51
2021/11/08 23:45:45;;;;;;;;;;;;;;;;;;5010362;28;1612;-50
2021/11/08 23:48:10;;;;;;;;;;;;;;;;;;5035458;28;1445;-50
2021/11/08 23:50:35;;;;;;;;;;;;;;;;;;5035284;28;1402;-49
2021/11/08 23:53:01;;;;;;;;;;;;;;;;;;5030636;28;1914;-49
2021/11/08 23:55:27;;;;;;;;;;;;;;;;;;5029017;28;1214;-50
2021/11/08 23:57:53;;;;;;;;;;;;;;;;;;5035131;28;1462;-50
